Time;durP1;ratioP1;P1;durP2;ratioP2;P2;SDS_P1;SDS_P2;PMS_P1;PMS_P2;Temp;Humidity;BMP_temperature;BMP_pressure;BME280_temperature;BME280_humidity;BME280_pressure;Samples;Min_cycle;Max_cycle;Signal;HPM_P1;HPM_P2
2021/10/26 00:01:27;;;;;;;13.60;8.70;;;;;;;-0.83;74.37;98435.96;117286;1174;59551;-64
2021/10/26 00:03:57;;;;;;;14.60;9.50;;;;;;;-0.85;73.34;98432.20;117229;1175;59510;-65
2021/10/26 00:06:26;;;;;;;13.30;9.40;;;;;;;-0.88;73.67;98430.52;117364;1174;70468;-64
2021/10/26 00:08:56;;;;;;;16.90;11.80;;;;;;;-0.90;74.60;98429.86;117337;1174;67635;-64
2021/10/26 00:11:26;;;;;;;24.70;14.20;;;;;;;-0.93;74.75;98429.37;117258;1174;69191;-64
2021/10/26 00:13:56;;;;;;;15.50;9.70;;;;;;;-0.97;76.37;98427.71;117309;1174;59528;-64
2021/10/26 00:16:26;;;;;;;19.80;11.90;;;;;;;-1.00;75.58;98430.98;117251;1177;59583;-64
2021/10/26 00:18:56;;;;;;;11.90;7.70;;;;;;;-1.03;76.02;98427.26;117290;1174;71120;-64
2021/10/26 00:21:26;;;;;;;;;;;;;;;-1.06;73.85;98421.65;117335;1174;68398;-64
2021/10/26 00:23:56;;;;;;;21.10;11.40;;;;;;;-1.09;77.16;98416.19;117263;1174;69278;-64
2021/10/26 00:26:25;;;;;;;17.00;9.60;;;;;;;-1.11;73.96;98414.33;116976;1176;59558;-63
2021/10/26 00:28:56;;;;;;;14.60;10.10;;;;;;;-1.15;74.44;98411.48;117268;1168;59501;-64
2021/10/26 00:31:25;;;;;;;;;;;;;;;-1.20;72.54;98408.78;117350;1174;71483;-64
2021/10/26 00:33:56;;;;;;;12.10;8.50;;;;;;;-1.25;72.27;98405.06;117252;1174;68656;-65
2021/10/26 00:36:26;;;;;;;12.40;8.70;;;;;;;-1.29;71.92;98402.71;117267;1176;68487;-64
2021/10/26 00:38:56;;;;;;;16.10;11.50;;;;;;;-1.35;72.94;98401.06;117222;1176;59522;-63
2021/10/26 00:41:28;;;;;;;12.50;7.70;;;;;;;-1.41;72.99;98400.95;117279;1174;59513;-63
2021/10/26 00:43:57;;;;;;;;;;;;;;;-1.45;72.03;98400.82;117306;1174;71371;-65
2021/10/26 00:46:29;;;;;;;10.50;8.50;;;;;;;-1.49;72.13;98401.87;117236;1174;67672;-63
2021/10/26 00:49:01;;;;;;;17.10;10.10;;;;;;;-1.52;71.66;98401.23;117259;1174;68210;-63
2021/10/26 00:51:32;;;;;;;13.40;9.10;;;;;;;-1.57;75.78;98402.62;117094;1176;59606;-63
2021/10/26 00:54:05;;;;;;;12.30;8.30;;;;;;;-1.61;75.36;98397.02;117208;1175;59533;-64
2021/10/26 00:56:39;;;;;;;9.90;8.30;;;;;;;-1.63;74.95;98393.44;117276;1176;70967;-64
2021/10/26 00:59:09;;;;;;;13.60;9.00;;;;;;;-1.65;75.01;98387.14;117246;1177;67502;-63
2021/10/26 01:01:42;;;;;;;9.40;5.50;;;;;;;-1.67;74.50;98384.75;117249;1175;68387;-63
2021/10/26 01:04:12;;;;;;;12.10;8.20;;;;;;;-1.69;75.98;98383.23;117258;1174;59653;-64
2021/10/26 01:06:43;;;;;;;12.20;7.50;;;;;;;-1.71;74.94;98378.64;117261;1177;59558;-63
2021/10/26 01:09:14;;;;;;;;;;;;;;;-1.70;71.98;98374.70;117237;1176;71132;-64
2021/10/26 01:11:44;;;;;;;14.00;8.60;;;;;;;-1.68;72.29;98373.65;117309;1174;67661;-64
2021/10/26 01:14:17;;;;;;;14.10;8.70;;;;;;;-1.67;73.60;98373.31;117297;1176;68983;-64
2021/10/26 01:16:48;;;;;;;19.20;9.50;;;;;;;-1.67;74.38;98375.19;117310;1175;59628;-64
2021/10/26 01:19:17;;;;;;;;;;;;;;;-1.70;76.27;98371.80;117145;1174;59510;-64
2021/10/26 01:21:48;;;;;;;15.40;8.20;;;;;;;-1.71;76.56;98370.61;117225;1176;70549;-63
2021/10/26 01:24:19;;;;;;;11.00;6.30;;;;;;;-1.74;77.16;98367.91;117196;1175;67682;-63
2021/10/26 01:26:50;;;;;;;16.30;9.10;;;;;;;-1.76;76.45;98365.52;117070;1177;69240;-64
2021/10/26 01:29:20;;;;;;;12.60;7.80;;;;;;;-1.77;75.52;98366.39;117182;1176;59522;-63
2021/10/26 01:31:51;;;;;;;16.30;10.30;;;;;;;-1.79;77.90;98368.96;116931;1176;59524;-64
2021/10/26 01:34:28;;;;;;;11.60;7.60;;;;;;;-1.80;78.35;98365.39;117308;1177;70516;-63
2021/10/26 01:37:00;;;;;;;15.50;9.90;;;;;;;-1.83;79.38;98362.16;117231;1174;68124;-64
2021/10/26 01:39:32;;;;;;;11.00;6.60;;;;;;;-1.83;78.43;98362.85;117229;1174;67797;-64
2021/10/26 01:42:02;;;;;;;;;;;;;;;-1.84;76.65;98365.94;117177;1175;59612;-63
2021/10/26 01:44:33;;;;;;;15.50;8.30;;;;;;;-1.86;77.12;98365.27;117158;1174;59622;-64
2021/10/26 01:47:12;;;;;;;14.40;8.60;;;;;;;-1.89;76.85;98367.17;117119;1174;70577;-63
2021/10/26 01:49:42;;;;;;;15.10;8.40;;;;;;;-1.90;76.78;98363.59;117028;1174;67619;-63
2021/10/26 01:52:12;;;;;;;15.90;10.10;;;;;;;-1.91;76.72;98365.31;117230;1174;68887;-64
2021/10/26 01:54:43;;;;;;;11.10;7.10;;;;;;;-1.94;77.20;98359.69;117283;1175;59533;-64
2021/10/26 01:57:18;;;;;;;17.00;9.50;;;;;;;-1.96;78.60;98357.31;117295;1175;59538;-65
2021/10/26 01:59:57;;;;;;;13.30;8.10;;;;;;;-1.96;74.86;98351.48;117297;1174;70590;-64
2021/10/26 02:02:27;;;;;;;19.80;11.60;;;;;;;-1.96;75.22;98349.28;117280;1174;68576;-64
2021/10/26 02:04:57;;;;;;;17.80;9.60;;;;;;;-2.00;75.53;98349.66;117270;1174;69077;-64
2021/10/26 02:07:28;;;;;;;13.40;7.60;;;;;;;-2.02;75.44;98345.05;117316;1174;59564;-64
2021/10/26 02:09:57;;;;;;;13.80;8.00;;;;;;;-2.07;76.33;98341.52;117279;1176;59515;-64
2021/10/26 02:12:27;;;;;;;21.30;11.70;;;;;;;-2.10;77.84;98341.02;117279;1175;71189;-64
2021/10/26 02:14:57;;;;;;;13.50;8.10;;;;;;;-2.11;77.54;98342.73;117294;1174;67768;-64
2021/10/26 02:17:28;;;;;;;10.00;6.60;;;;;;;-2.05;77.49;98339.45;117071;1174;69179;-64
2021/10/26 02:20:00;;;;;;;17.60;9.60;;;;;;;-1.97;79.21;98335.97;117028;1176;59522;-64
2021/10/26 02:22:30;;;;;;;14.60;8.80;;;;;;;-1.95;79.41;98334.93;116955;1174;59561;-63
2021/10/26 02:24:59;;;;;;;19.30;9.70;;;;;;;-1.99;79.18;98337.52;117328;1174;70590;-64
2021/10/26 02:27:29;;;;;;;18.40;11.30;;;;;;;-2.01;78.42;98337.54;117319;1174;67752;-65
2021/10/26 02:29:59;;;;;;;17.00;10.60;;;;;;;-2.06;80.44;98337.58;117245;1177;69335;-64
2021/10/26 02:32:30;;;;;;;18.40;10.70;;;;;;;-2.11;79.67;98332.83;117285;1174;59559;-64
2021/10/26 02:35:00;;;;;;;9.50;6.30;;;;;;;-2.15;78.72;98334.22;117282;1174;59933;-65
2021/10/26 02:37:30;;;;;;;7.50;5.30;;;;;;;-2.18;77.95;98331.68;117310;1176;70490;-64
2021/10/26 02:40:00;;;;;;;9.80;6.10;;;;;;;-2.21;77.70;98328.30;117315;1174;68323;-64
2021/10/26 02:42:30;;;;;;;18.40;11.10;;;;;;;-2.24;77.30;98323.88;117275;1174;69328;-64
2021/10/26 02:45:01;;;;;;;13.20;8.80;;;;;;;-2.27;78.29;98319.96;117294;1174;59564;-65
2021/10/26 02:47:31;;;;;;;16.00;10.70;;;;;;;-2.30;79.16;98319.98;117319;1174;59487;-65
2021/10/26 02:50:01;;;;;;;12.50;8.10;;;;;;;-2.33;79.70;98323.08;117299;1174;71398;-63
2021/10/26 02:52:31;;;;;;;12.60;8.40;;;;;;;-2.35;78.87;98327.04;117311;1174;68362;-63
2021/10/26 02:55:03;;;;;;;6.80;6.00;;;;;;;-2.38;77.57;98326.70;117292;1175;68497;-64
2021/10/26 02:57:34;;;;;;;9.20;5.80;;;;;;;-2.41;76.92;98325.36;117272;1175;59542;-64
2021/10/26 03:00:06;;;;;;;16.60;8.90;;;;;;;-2.44;76.66;98322.48;117341;1174;59534;-62
2021/10/26 03:02:38;;;;;;;22.80;12.30;;;;;;;-2.48;78.52;98321.30;117302;1177;70554;-63
2021/10/26 03:05:09;;;;;;;13.10;9.40;;;;;;;-2.51;80.55;98324.56;117338;1176;68167;-63
2021/10/26 03:07:41;;;;;;;11.40;7.50;;;;;;;-2.51;78.23;98324.05;117194;1177;69048;-63
2021/10/26 03:10:12;;;;;;;22.60;13.70;;;;;;;-2.51;76.34;98324.73;117311;1175;59548;-63
2021/10/26 03:12:42;;;;;;;19.40;11.80;;;;;;;-2.56;81.15;98323.23;117156;1176;59549;-63
2021/10/26 03:15:14;;;;;;;16.90;10.00;;;;;;;-2.57;79.44;98323.41;117391;1174;71422;-63
2021/10/26 03:17:45;;;;;;;11.90;7.00;;;;;;;-2.60;78.60;98320.17;117225;1176;68457;-61
2021/10/26 03:20:20;;;;;;;10.40;7.00;;;;;;;-2.63;78.07;98320.71;117251;1174;68471;-64
2021/10/26 03:22:49;;;;;;;16.40;10.90;;;;;;;-2.64;79.45;98321.73;117247;1174;59520;-63
2021/10/26 03:25:19;;;;;;;18.80;11.30;;;;;;;-2.65;80.35;98317.48;116978;1174;59558;-63
2021/10/26 03:27:50;;;;;;;12.70;7.70;;;;;;;-2.64;81.97;98317.12;117309;1171;71525;-63
2021/10/26 03:30:19;;;;;;;11.40;7.50;;;;;;;-2.63;79.14;98319.35;117275;1174;67746;-63
2021/10/26 03:32:52;;;;;;;16.50;9.30;;;;;;;-2.64;80.63;98316.11;117266;1166;69246;-63
2021/10/26 03:35:38;;;;;;;14.00;8.10;;;;;;;-2.65;80.84;98314.23;117278;1174;59549;-63
2021/10/26 03:38:07;;;;;;;14.20;8.30;;;;;;;-2.66;80.26;98312.72;117322;1174;59524;-63
2021/10/26 03:40:38;;;;;;;13.70;8.10;;;;;;;-2.67;80.12;98306.75;117318;1174;71424;-63
2021/10/26 03:43:09;;;;;;;18.80;12.30;;;;;;;-2.67;81.95;98301.98;117038;1177;68330;-62
2021/10/26 03:45:39;;;;;;;14.70;10.60;;;;;;;-2.70;82.01;98307.79;117289;1174;68622;-63
2021/10/26 03:48:09;;;;;;;9.60;6.10;;;;;;;-2.72;80.49;98303.70;117122;1177;59545;-62
2021/10/26 03:50:41;;;;;;;10.00;6.40;;;;;;;-2.72;77.90;98303.36;117150;1175;59669;-63
2021/10/26 03:53:11;;;;;;;8.50;6.40;;;;;;;-2.74;78.08;98303.52;117205;1175;70201;-63
2021/10/26 03:55:42;;;;;;;11.40;8.80;;;;;;;-2.76;77.92;98304.91;117211;1174;67475;-64
2021/10/26 03:58:12;;;;;;;13.20;8.10;;;;;;;-2.79;78.72;98300.16;117286;1174;68801;-64
2021/10/26 04:00:45;;;;;;;10.60;7.70;;;;;;;-2.82;78.29;98300.67;117268;1174;59533;-63
2021/10/26 04:03:29;;;;;;;9.20;6.10;;;;;;;-2.84;78.00;98293.02;117240;1174;59532;-64
2021/10/26 04:06:05;;;;;;;11.90;7.70;;;;;;;-2.81;76.95;98291.46;117338;1175;70391;-65
2021/10/26 04:11:23;;;;;;;14.40;7.30;;;;;;;-2.78;78.76;98291.45;117316;1175;69118;-63
2021/10/26 04:13:57;;;;;;;13.30;7.80;;;;;;;-2.81;79.90;98286.17;117311;1167;59532;-63
2021/10/26 04:16:26;;;;;;;12.90;6.70;;;;;;;-2.85;80.16;98286.54;117319;1175;59514;-63
2021/10/26 04:18:56;;;;;;;7.80;5.80;;;;;;;-2.88;79.18;98281.95;117262;1175;70561;-63
2021/10/26 04:21:26;;;;;;;12.40;8.50;;;;;;;-2.92;79.02;98277.02;117283;1174;67990;-64
2021/10/26 04:23:58;;;;;;;14.80;9.00;;;;;;;-2.94;80.69;98277.39;117229;1177;68684;-63
2021/10/26 04:26:27;;;;;;;12.00;8.80;;;;;;;-2.97;81.84;98276.02;117123;1174;59509;-63
2021/10/26 04:28:57;;;;;;;17.90;11.40;;;;;;;-3.00;82.50;98278.09;117307;1174;59612;-63
2021/10/26 04:31:27;;;;;;;8.70;6.20;;;;;;;-3.01;83.02;98275.88;117312;1174;71208;-63
2021/10/26 04:33:57;;;;;;;7.40;4.90;;;;;;;-3.03;81.03;98271.63;117307;1174;67776;-63
2021/10/26 04:36:28;;;;;;;11.00;6.80;;;;;;;-3.04;79.54;98269.94;117269;1174;69242;-64
2021/10/26 04:38:57;;;;;;;10.50;7.40;;;;;;;-3.05;79.44;98267.37;117276;1176;59938;-64
2021/10/26 04:41:28;;;;;;;8.50;5.80;;;;;;;-3.06;79.80;98266.85;117258;1175;59494;-64
2021/10/26 04:43:58;;;;;;;8.50;5.30;;;;;;;-3.08;79.82;98271.31;117241;1174;70356;-64
2021/10/26 04:46:30;;;;;;;8.80;6.00;;;;;;;-3.10;79.77;98265.00;117125;1174;68443;-63
2021/10/26 04:49:01;;;;;;;18.00;10.20;;;;;;;-3.12;80.91;98260.23;117185;1174;68564;-64
2021/10/26 04:51:31;;;;;;;15.70;9.20;;;;;;;-3.15;83.06;98262.30;117093;1174;59533;-63
2021/10/26 04:54:01;;;;;;;10.70;7.30;;;;;;;-3.14;82.93;98262.81;117298;1174;59525;-64
2021/10/26 04:56:30;;;;;;;6.60;5.10;;;;;;;-3.14;81.89;98260.92;117140;1174;71398;-64
2021/10/26 04:59:19;;;;;;;24.20;14.40;;;;;;;-3.12;81.48;98266.39;117256;1174;67954;-64
2021/10/26 05:01:48;;;;;;;19.40;12.10;;;;;;;-3.13;82.45;98264.17;117276;1174;68694;-63
2021/10/26 05:04:17;;;;;;;16.90;11.30;;;;;;;-3.14;81.25;98266.23;117266;1174;59490;-63
2021/10/26 05:06:47;;;;;;;14.40;9.40;;;;;;;-3.15;80.04;98266.73;117194;1174;59490;-63
2021/10/26 05:09:16;;;;;;;15.10;10.10;;;;;;;-3.16;78.92;98267.59;117238;1174;71350;-63
2021/10/26 05:11:45;;;;;;;31.40;19.40;;;;;;;-3.17;77.99;98268.11;117125;1176;68090;-63
2021/10/26 05:14:15;;;;;;;13.90;9.40;;;;;;;-3.19;78.58;98267.45;117201;1177;68425;-64
2021/10/26 05:17:21;;;;;;;13.50;8.30;;;;;;;-3.18;78.84;98273.58;116941;1174;59471;-64
2021/10/26 05:20:12;;;;;;;13.90;9.10;;;;;;;-3.15;78.28;98277.65;116968;1175;59655;-65
2021/10/26 05:23:18;;;;;;;12.10;10.10;;;;;;;-3.11;78.26;98281.02;116708;1178;72247;-63
2021/10/26 05:26:06;;;;;;;9.70;7.50;;;;;;;-3.06;78.33;98284.09;117059;1176;67905;-63
2021/10/26 05:28:38;;;;;;;22.60;12.70;;;;;;;-3.00;78.16;98286.95;117253;1177;68570;-64
2021/10/26 05:31:08;;;;;;;28.70;14.60;;;;;;;-2.96;79.71;98289.33;117225;1175;59491;-63
2021/10/26 05:33:39;;;;;;;22.40;11.50;;;;;;;-2.91;79.88;98293.55;117293;1176;59503;-64
2021/10/26 05:36:09;;;;;;;16.40;10.20;;;;;;;-2.84;79.41;98298.13;117257;1176;72054;-64
2021/10/26 05:38:39;;;;;;;31.00;19.10;;;;;;;-2.79;79.19;98302.20;117349;1175;68495;-63
2021/10/26 05:41:10;;;;;;;;;;;;;;;-2.78;79.88;98303.55;117240;1176;68463;-64
2021/10/26 05:43:40;;;;;;;32.50;19.80;;;;;;;-2.77;80.21;98304.92;117158;1174;59541;-64
2021/10/26 05:46:10;;;;;;;16.70;9.60;;;;;;;-2.73;79.52;98303.55;117216;1175;59570;-64
2021/10/26 05:48:39;;;;;;;21.60;15.60;;;;;;;-2.65;78.95;98306.55;117088;1177;71317;-64
2021/10/26 05:51:08;;;;;;;24.30;14.20;;;;;;;-2.56;79.28;98304.29;117250;1176;67581;-64
2021/10/26 05:53:38;;;;;;;13.70;9.60;;;;;;;-2.47;78.61;98306.29;117203;1171;68381;-63
2021/10/26 05:56:08;;;;;;;;;;;;;;;-2.38;77.86;98304.86;117360;1174;59968;-64
2021/10/26 05:58:37;;;;;;;14.00;8.00;;;;;;;-2.28;77.77;98310.08;117281;1177;59529;-64
2021/10/26 06:01:07;;;;;;;35.60;18.90;;;;;;;-2.16;76.72;98307.59;117281;1174;71166;-64
2021/10/26 06:03:36;;;;;;;21.20;13.80;;;;;;;-2.04;78.32;98305.95;117198;1176;67753;-64
2021/10/26 06:06:06;;;;;;;31.60;19.90;;;;;;;-1.90;77.60;98310.11;117239;1177;68459;-64
2021/10/26 06:08:35;;;;;;;18.90;13.70;;;;;;;-1.75;77.83;98308.10;117268;1174;59503;-64
2021/10/26 06:11:09;;;;;;;35.90;22.50;;;;;;;-1.57;76.90;98315.09;117395;1174;59535;-65
2021/10/26 06:13:49;;;;;;;40.80;25.50;;;;;;;-1.34;78.06;98317.77;117365;1174;71361;-64
2021/10/26 06:16:19;;;;;;;29.80;17.40;;;;;;;-0.84;77.69;98321.44;117328;1174;67668;-64
2021/10/26 06:18:48;;;;;;;21.30;15.60;;;;;;;-0.04;76.57;98314.98;117298;1174;69170;-64
2021/10/26 06:21:19;;;;;;;24.60;16.00;;;;;;;0.76;74.76;98314.45;117296;1175;59555;-64
2021/10/26 06:23:48;;;;;;;42.10;27.60;;;;;;;1.43;74.36;98317.70;117243;1174;59590;-64
2021/10/26 06:26:17;;;;;;;86.70;53.10;;;;;;;1.97;68.32;98318.20;117308;1174;71744;-65
2021/10/26 06:28:55;;;;;;;73.90;39.00;;;;;;;2.42;68.54;98317.27;117251;1174;68327;-66
2021/10/26 06:31:24;;;;;;;42.00;26.90;;;;;;;3.03;70.15;98321.11;117388;1174;69227;-65
2021/10/26 06:33:54;;;;;;;55.70;36.40;;;;;;;3.65;68.02;98316.70;117252;1174;59513;-66
2021/10/26 06:36:25;;;;;;;70.50;51.10;;;;;;;4.34;68.24;98316.41;117294;1174;59545;-64
2021/10/26 06:38:56;;;;;;;82.10;55.00;;;;;;;5.11;62.45;98315.45;117095;1174;70613;-65
2021/10/26 06:41:26;;;;;;;84.70;59.00;;;;;;;5.70;55.06;98316.88;117333;1176;68437;-65
2021/10/26 06:44:02;;;;;;;60.30;40.90;;;;;;;6.00;55.76;98313.61;117349;1174;69309;-66
2021/10/26 06:46:51;;;;;;;66.50;49.30;;;;;;;6.65;56.10;98315.81;117051;1174;59552;-65
2021/10/26 06:49:53;;;;;;;47.10;33.30;;;;;;;7.13;53.71;98314.58;116981;1174;59542;-67
2021/10/26 06:52:48;;;;;;;44.70;29.40;;;;;;;7.71;56.23;98308.45;117005;1174;70889;-62
2021/10/26 06:55:36;;;;;;;29.90;22.90;;;;;;;8.36;55.60;98306.53;116963;1174;68391;-66
2021/10/26 06:58:28;;;;;;;36.60;27.80;;;;;;;9.00;53.96;98300.20;117326;1174;69582;-66
2021/10/26 07:01:16;;;;;;;34.70;25.40;;;;;;;9.64;51.57;98299.90;117140;1167;59545;-64
2021/10/26 07:04:19;;;;;;;25.60;19.00;;;;;;;10.01;48.81;98300.23;117158;1176;59537;-64
2021/10/26 07:07:08;;;;;;;23.20;17.60;;;;;;;10.26;46.35;98300.60;117337;1174;71105;-66
2021/10/26 07:09:48;;;;;;;24.90;20.20;;;;;;;10.35;44.47;98298.36;117382;1174;67605;-65
2021/10/26 07:12:23;;;;;;;20.80;15.40;;;;;;;10.25;44.44;98299.28;117236;1174;70065;-64
2021/10/26 07:14:53;;;;;;;14.60;12.90;;;;;;;10.61;44.22;98305.86;117190;1174;59935;-66
2021/10/26 07:17:22;;;;;;;20.90;16.70;;;;;;;11.03;44.19;98307.75;117330;1174;59497;-66
2021/10/26 07:19:52;;;;;;;18.90;15.20;;;;;;;11.38;41.77;98305.79;116996;1174;71401;-64
2021/10/26 07:22:27;;;;;;;19.70;16.30;;;;;;;11.55;41.30;98303.33;117249;1174;68456;-67
2021/10/26 07:25:08;;;;;;;22.30;15.80;;;;;;;12.18;43.59;98300.36;117203;1174;69310;-66
2021/10/26 07:27:39;;;;;;;15.50;12.90;;;;;;;12.90;42.69;98299.10;117210;1174;59500;-68
2021/10/26 07:30:11;;;;;;;13.70;11.00;;;;;;;13.50;40.61;98303.20;117392;1174;59529;-67
2021/10/26 07:32:41;;;;;;;21.20;15.30;;;;;;;13.87;39.19;98303.31;117157;1175;71958;-68
2021/10/26 07:35:10;;;;;;;20.30;16.70;;;;;;;14.23;37.47;98299.11;117259;1175;68568;-66
2021/10/26 07:37:45;;;;;;;19.40;14.80;;;;;;;13.14;37.14;98301.12;117163;1175;69006;-67
2021/10/26 07:40:22;;;;;;;18.40;14.80;;;;;;;13.49;38.02;98299.42;117263;1174;59471;-67
2021/10/26 07:43:16;;;;;;;18.80;14.40;;;;;;;13.59;37.21;98293.44;117066;1177;59487;-67
2021/10/26 07:46:11;;;;;;;18.00;12.60;;;;;;;14.00;36.68;98289.11;117179;1176;72057;-68
2021/10/26 07:48:40;;;;;;;16.80;13.50;;;;;;;14.06;36.12;98285.48;117145;1177;67520;-66
2021/10/26 07:51:10;;;;;;;19.10;14.90;;;;;;;14.75;37.07;98287.74;117233;1177;68449;-67
2021/10/26 07:53:39;;;;;;;12.90;10.00;;;;;;;15.37;34.37;98284.88;117231;1177;59525;-67
2021/10/26 07:56:10;;;;;;;11.50;9.70;;;;;;;16.08;35.42;98282.35;117151;1175;59507;-66
2021/10/26 07:58:41;;;;;;;10.40;8.40;;;;;;;16.76;32.12;98277.46;117260;1175;71170;-66
2021/10/26 08:01:10;;;;;;;13.00;10.20;;;;;;;17.08;30.59;98270.90;117373;1175;67413;-66
2021/10/26 08:04:16;;;;;;;12.10;8.60;;;;;;;17.05;28.98;98270.96;116835;1177;69452;-67
2021/10/26 08:06:54;;;;;;;11.70;9.10;;;;;;;17.36;30.45;98270.39;117164;1177;59523;-67
2021/10/26 08:09:23;;;;;;;9.80;7.40;;;;;;;17.85;29.83;98271.07;117194;1174;59492;-65
2021/10/26 08:11:53;;;;;;;11.30;8.00;;;;;;;18.35;29.35;98269.50;117329;1174;71432;-65
2021/10/26 08:14:22;;;;;;;9.10;7.20;;;;;;;18.34;26.70;98266.12;117219;1175;68403;-66
2021/10/26 08:16:51;;;;;;;10.10;8.10;;;;;;;18.51;27.22;98269.48;117170;1176;68711;-67
2021/10/26 08:19:22;;;;;;;7.90;5.70;;;;;;;18.69;27.36;98272.09;117002;1176;59522;-66
2021/10/26 08:21:51;;;;;;;7.40;6.10;;;;;;;18.96;26.20;98272.73;117127;1167;59679;-66
2021/10/26 08:24:22;;;;;;;10.90;8.20;;;;;;;18.98;26.10;98271.64;117250;1176;70785;-68
2021/10/26 08:26:59;;;;;;;8.00;6.40;;;;;;;19.11;27.23;98267.83;117263;1175;68237;-68
2021/10/26 08:29:47;;;;;;;10.10;8.00;;;;;;;19.64;26.09;98259.45;117307;1174;68665;-67
2021/10/26 08:32:46;;;;;;;15.80;11.20;;;;;;;19.96;25.71;98261.03;117377;1177;59539;-68
2021/10/26 08:35:24;;;;;;;9.70;7.10;;;;;;;19.97;24.20;98254.44;117298;1177;59516;-67
2021/10/26 08:38:01;;;;;;;12.10;9.90;;;;;;;20.08;24.73;98253.73;117369;1174;71697;-67
2021/10/26 08:40:41;;;;;;;10.10;7.60;;;;;;;20.35;24.79;98253.31;116932;1174;68982;-66
2021/10/26 08:43:11;;;;;;;11.60;8.60;;;;;;;20.98;24.70;98251.45;117265;1177;69006;-68
2021/10/26 08:45:44;;;;;;;8.20;6.90;;;;;;;20.57;23.51;98246.17;117296;1174;59513;-66
2021/10/26 08:48:21;;;;;;;11.10;8.70;;;;;;;20.98;23.37;98244.17;117326;1174;59529;-68
2021/10/26 08:50:55;;;;;;;9.40;7.30;;;;;;;21.41;23.38;98240.45;117327;1174;71111;-70
2021/10/26 08:53:30;;;;;;;8.30;7.30;;;;;;;21.97;23.04;98234.88;117321;1176;68521;-67
2021/10/26 08:56:00;;;;;;;8.40;7.00;;;;;;;22.43;22.62;98238.08;117238;1174;69152;-70
2021/10/26 08:58:36;;;;;;;11.60;9.50;;;;;;;22.89;22.14;98237.77;117352;1175;59529;-69
2021/10/26 09:01:06;;;;;;;11.60;8.70;;;;;;;22.88;20.31;98239.83;117284;1174;59567;-67
2021/10/26 09:03:39;;;;;;;10.00;8.20;;;;;;;22.25;20.36;98235.79;117236;1175;71106;-66
2021/10/26 09:06:11;;;;;;;9.50;8.50;;;;;;;21.83;20.85;98231.59;117329;1177;68251;-69
2021/10/26 09:08:42;;;;;;;12.10;9.30;;;;;;;22.11;21.68;98234.83;117312;1175;68996;-67
2021/10/26 09:11:24;;;;;;;13.00;10.20;;;;;;;21.36;21.29;98234.55;117307;1175;59520;-70
2021/10/26 09:17:44;;;;;;;8.40;6.80;;;;;;;22.16;22.00;98227.71;116788;1177;69597;-68
2021/10/26 09:20:50;;;;;;;9.80;8.00;;;;;;;22.95;20.56;98224.91;117114;1174;67268;-70
2021/10/26 09:23:26;;;;;;;7.60;6.30;;;;;;;23.90;20.47;98215.55;117382;1177;68450;-68
2021/10/26 09:26:01;;;;;;;11.20;8.60;;;;;;;24.84;18.98;98213.75;117081;1176;59590;-69
2021/10/26 09:28:30;;;;;;;9.50;6.70;;;;;;;25.67;18.97;98207.48;117351;1175;59480;-67
2021/10/26 09:31:08;;;;;;;9.30;7.90;;;;;;;26.17;17.89;98202.92;117387;1175;71754;-69
2021/10/26 09:33:40;;;;;;;9.70;7.70;;;;;;;26.37;16.98;98198.45;117267;1177;68373;-71
2021/10/26 09:36:27;;;;;;;8.50;7.00;;;;;;;26.64;17.22;98198.58;117246;1176;68635;-69
2021/10/26 09:39:06;;;;;;;9.80;7.20;;;;;;;27.26;16.65;98195.90;117132;1176;59548;-68
2021/10/26 09:42:00;;;;;;;7.90;7.10;;;;;;;27.59;15.45;98185.50;117135;1177;59513;-69
2021/10/26 09:44:50;;;;;;;7.70;5.90;;;;;;;27.69;15.23;98181.31;117331;1175;71361;-72
2021/10/26 09:47:28;;;;;;;10.10;7.50;;;;;;;28.02;16.03;98176.56;117309;1175;67566;-68
2021/10/26 09:50:00;;;;;;;8.80;7.00;;;;;;;27.48;15.46;98177.29;117244;1176;69210;-68
2021/10/26 09:52:43;;;;;;;8.60;6.70;;;;;;;27.51;15.49;98169.88;117196;1175;59521;-67
2021/10/26 09:55:28;;;;;;;9.30;7.10;;;;;;;27.72;15.47;98166.24;117014;1176;59532;-68
2021/10/26 09:58:03;;;;;;;6.50;4.70;;;;;;;28.00;15.35;98158.81;117272;1177;70944;-68
2021/10/26 10:00:33;;;;;;;6.90;5.30;;;;;;;28.57;14.82;98156.80;117005;1177;68781;-70
2021/10/26 10:03:21;;;;;;;8.30;6.90;;;;;;;28.62;14.57;98153.85;117386;1177;69734;-68
2021/10/26 10:05:53;;;;;;;10.30;7.60;;;;;;;27.50;14.08;98155.23;117163;1177;59520;-68
2021/10/26 10:08:34;;;;;;;6.70;5.60;;;;;;;26.54;14.96;98150.90;117402;1176;59551;-69
2021/10/26 10:11:06;;;;;;;7.90;6.50;;;;;;;27.10;15.42;98144.61;117061;1177;71377;-68
2021/10/26 10:13:44;;;;;;;6.50;5.40;;;;;;;27.08;15.36;98146.38;117111;1175;68539;-70
2021/10/26 10:16:15;;;;;;;8.40;6.60;;;;;;;27.96;15.91;98135.90;117260;1176;68579;-70
2021/10/26 10:18:45;;;;;;;8.90;6.80;;;;;;;27.97;14.10;98134.98;117296;1176;59567;-68
2021/10/26 10:21:17;;;;;;;7.00;5.40;;;;;;;27.62;14.19;98127.81;117025;1175;59571;-67
2021/10/26 10:23:48;;;;;;;8.40;6.80;;;;;;;28.14;14.00;98129.07;117346;1175;70531;-70
2021/10/26 10:26:23;;;;;;;6.80;5.10;;;;;;;27.64;13.85;98125.00;116986;1177;68405;-67
2021/10/26 10:28:54;;;;;;;7.50;5.50;;;;;;;27.85;13.78;98118.52;117395;1174;68503;-69
2021/10/26 10:31:26;;;;;;;7.10;5.60;;;;;;;27.43;14.31;98111.52;117300;1174;59527;-68
2021/10/26 10:33:59;;;;;;;7.70;6.20;;;;;;;28.12;14.66;98112.08;117364;1174;59596;-69
2021/10/26 10:36:30;;;;;;;8.30;5.90;;;;;;;28.70;13.89;98110.11;117432;1174;71815;-69
2021/10/26 10:39:04;;;;;;;7.30;6.10;;;;;;;28.88;13.63;98107.08;117380;1174;69100;-69
2021/10/26 10:41:36;;;;;;;7.80;6.30;;;;;;;27.95;13.52;98100.49;117304;1175;69780;-72
2021/10/26 10:44:21;;;;;;;7.50;6.40;;;;;;;26.89;14.20;98101.84;117392;1174;59629;-70
2021/10/26 10:46:53;;;;;;;9.60;7.10;;;;;;;25.22;15.40;98092.92;117375;1174;59506;-68
2021/10/26 10:49:37;;;;;;;8.60;6.80;;;;;;;25.06;15.94;98087.18;117375;1174;71324;-67
2021/10/26 10:52:14;;;;;;;8.40;6.00;;;;;;;24.10;16.47;98084.83;117224;1174;68767;-69
2021/10/26 10:57:21;;;;;;;6.50;5.30;;;;;;;22.79;18.25;98080.61;117295;1174;59506;-67
2021/10/26 10:59:52;;;;;;;5.60;4.30;;;;;;;24.34;17.12;98075.34;117347;1174;59545;-69
2021/10/26 11:02:32;;;;;;;6.60;5.10;;;;;;;25.65;16.33;98074.62;117325;1175;71396;-65
2021/10/26 11:05:04;;;;;;;6.50;5.20;;;;;;;26.73;15.40;98075.70;117272;1175;68976;-69
2021/10/26 11:07:42;;;;;;;7.60;5.50;;;;;;;27.67;14.99;98071.95;117280;1175;69653;-68
2021/10/26 11:10:14;;;;;;;7.10;5.80;;;;;;;27.81;13.78;98067.69;117380;1174;59510;-70
2021/10/26 11:12:43;;;;;;;8.80;6.40;;;;;;;26.41;14.59;98064.38;117393;1174;59529;-68
2021/10/26 11:15:21;;;;;;;7.50;5.40;;;;;;;24.37;16.02;98057.31;117431;1168;71909;-68
2021/10/26 11:17:53;;;;;;;8.90;6.40;;;;;;;25.73;15.81;98054.55;117452;1174;66642;-67
2021/10/26 11:20:31;;;;;;;6.40;5.10;;;;;;;24.98;15.79;98051.67;117463;1175;68999;-68
2021/10/26 11:23:02;;;;;;;8.50;6.10;;;;;;;25.78;15.71;98045.91;117506;1174;59525;-67
2021/10/26 11:25:36;;;;;;;6.60;4.60;;;;;;;25.92;15.19;98039.83;117411;1174;59537;-66
2021/10/26 11:28:12;;;;;;;8.00;6.20;;;;;;;26.59;14.77;98036.84;117327;1174;70671;-69
2021/10/26 11:30:42;;;;;;;5.70;4.20;;;;;;;26.79;14.89;98033.21;117414;1174;68341;-68
2021/10/26 11:33:14;;;;;;;6.80;5.20;;;;;;;27.55;14.21;98031.75;117362;1174;68127;-70
2021/10/26 11:36:05;;;;;;;6.80;5.80;;;;;;;27.85;13.90;98030.86;117451;1174;59522;-66
2021/10/26 11:38:44;;;;;;;7.30;5.50;;;;;;;26.39;14.70;98030.98;117457;1175;59519;-69
2021/10/26 11:41:23;;;;;;;6.80;5.60;;;;;;;26.67;14.38;98030.55;117475;1175;71983;-67
2021/10/26 11:43:59;;;;;;;7.40;6.20;;;;;;;25.29;15.24;98026.65;117424;1174;67481;-70
2021/10/26 11:46:35;;;;;;;7.50;6.10;;;;;;;24.09;16.24;98022.06;117347;1174;68999;-70
2021/10/26 11:49:18;;;;;;;6.50;5.50;;;;;;;25.53;15.79;98021.41;117306;1174;59526;-66
2021/10/26 11:51:58;;;;;;;6.80;5.40;;;;;;;25.72;15.02;98018.20;117184;1175;59478;-67
2021/10/26 11:54:38;;;;;;;6.40;4.30;;;;;;;25.25;15.23;98014.55;117315;1174;71123;-68
2021/10/26 11:57:09;;;;;;;6.00;4.90;;;;;;;26.41;14.78;98005.66;117346;1174;68136;-68
2021/10/26 11:59:44;;;;;;;7.80;6.00;;;;;;;27.54;14.34;98003.20;117286;1174;68768;-67